Time;durP1;ratioP1;P1;durP2;ratioP2;P2;SDS_P1;SDS_P2;PMS_P1;PMS_P2;Temp;Humidity;BMP_temperature;BMP_pressure;BME280_temperature;BME280_humidity;BME280_pressure;Samples;Min_cycle;Max_cycle;Signal;HPM_P1;HPM_P2
2023/04/23 00:02:48;;;;;;;;;;;18.90;56.60;;;;;;6131330;29;19914;-69
2023/04/23 00:05:50;;;;;;;;;;;18.90;56.60;;;;;;6130633;29;20441;-69
2023/04/23 00:08:53;;;;;;;;;;;18.80;56.50;;;;;;6147753;29;19918;-69
2023/04/23 00:11:53;;;;;;;;;;;18.90;56.50;;;;;;6147858;29;20077;-69
2023/04/23 00:14:54;;;;;;;;;;;18.90;56.50;;;;;;6147718;29;19911;-69
2023/04/23 00:17:55;;;;;;;;;;;18.90;56.60;;;;;;6148186;29;19926;-69
2023/04/23 00:20:56;;;;;;;;;;;18.90;56.60;;;;;;6147878;29;19926;-69
2023/04/23 00:23:56;;;;;;;;;;;18.90;56.60;;;;;;6147893;29;19917;-69
2023/04/23 00:26:57;;;;;;;;;;;18.90;56.50;;;;;;6162473;28;19966;-69
2023/04/23 00:29:57;;;;;;;;;;;18.80;56.50;;;;;;6162649;28;19911;-68
2023/04/23 00:32:58;;;;;;;;;;;18.90;56.50;;;;;;6147786;29;19993;-69
2023/04/23 00:35:58;;;;;;;;;;;18.90;56.60;;;;;;6147746;29;20124;-69
2023/04/23 00:38:59;;;;;;;;;;;18.90;56.60;;;;;;6162594;28;20001;-69
2023/04/23 00:42:05;;;;;;;;;;;18.90;56.60;;;;;;6147674;29;20033;-69
2023/04/23 00:45:07;;;;;;;;;;;18.90;56.60;;;;;;6147330;29;19911;-70
2023/04/23 00:48:08;;;;;;;;;;;18.90;56.60;;;;;;6130609;29;19923;-69
2023/04/23 00:51:10;;;;;;;;;;;18.90;56.60;;;;;;6165792;28;19937;-69
2023/04/23 00:54:11;;;;;;;;;;;18.80;56.50;;;;;;6152231;29;19911;-69
2023/04/23 00:57:12;;;;;;;;;;;18.90;56.60;;;;;;6166682;28;19993;-69
2023/04/23 01:00:13;;;;;;;;;;;18.90;56.60;;;;;;6150724;29;19973;-69
2023/04/23 01:03:15;;;;;;;;;;;18.80;56.50;;;;;;6147748;29;20421;-69
2023/04/23 01:06:16;;;;;;;;;;;18.80;56.50;;;;;;6134831;29;19910;-69
2023/04/23 01:09:17;;;;;;;;;;;18.80;56.50;;;;;;6151660;29;19918;-69
2023/04/23 01:12:17;;;;;;;;;;;18.90;56.60;;;;;;6151752;29;19911;-69
2023/04/23 01:15:18;;;;;;;;;;;18.90;56.60;;;;;;6134072;28;20004;-69
2023/04/23 01:18:19;;;;;;;;;;;18.90;56.60;;;;;;6134539;29;20445;-68
2023/04/23 01:21:19;;;;;;;;;;;18.80;56.50;;;;;;6151593;29;20017;-68
2023/04/23 01:24:20;;;;;;;;;;;18.80;56.50;;;;;;6134361;29;19969;-69
2023/04/23 01:27:23;;;;;;;;;;;18.80;56.50;;;;;;6133957;29;20435;-69
2023/04/23 01:30:25;;;;;;;;;;;18.90;56.60;;;;;;6151397;29;19945;-69
2023/04/23 01:33:26;;;;;;;;;;;18.90;56.60;;;;;;6134202;29;19910;-69
2023/04/23 01:36:27;;;;;;;;;;;18.90;56.60;;;;;;6151178;28;19914;-69
2023/04/23 01:39:28;;;;;;;;;;;18.90;56.60;;;;;;6133867;29;20479;-69
2023/04/23 01:42:28;;;;;;;;;;;18.90;56.60;;;;;;6151077;29;19945;-69
2023/04/23 01:45:29;;;;;;;;;;;18.90;57.30;;;;;;6133694;29;20334;-69
2023/04/23 01:48:30;;;;;;;;;;;18.90;56.60;;;;;;6133552;29;20005;-69
2023/04/23 01:51:31;;;;;;;;;;;18.90;56.60;;;;;;6150923;29;19910;-69
2023/04/23 01:54:32;;;;;;;;;;;18.90;56.60;;;;;;6150865;28;19911;-69
2023/04/23 01:57:32;;;;;;;;;;;18.90;56.60;;;;;;6150257;29;19913;-68
2023/04/23 02:00:33;;;;;;;;;;;18.90;56.60;;;;;;6149725;28;19915;-68
2023/04/23 02:03:34;;;;;;;;;;;18.90;56.60;;;;;;6149744;29;20449;-69
2023/04/23 02:06:34;;;;;;;;;;;18.90;56.60;;;;;;6133271;29;19938;-69
2023/04/23 02:09:36;;;;;;;;;;;18.90;56.60;;;;;;6150603;29;20293;-69
2023/04/23 02:12:36;;;;;;;;;;;18.90;56.60;;;;;;6133160;29;19970;-69
2023/04/23 02:15:37;;;;;;;;;;;18.80;56.50;;;;;;6133115;29;19961;-69
2023/04/23 02:18:39;;;;;;;;;;;18.90;56.60;;;;;;6133014;29;19911;-69
2023/04/23 02:21:40;;;;;;;;;;;18.90;56.60;;;;;;6133072;29;19973;-68
2023/04/23 02:24:43;;;;;;;;;;;18.90;56.60;;;;;;6150239;28;20001;-69
2023/04/23 02:27:43;;;;;;;;;;;18.80;56.60;;;;;;6150397;29;19913;-69
2023/04/23 02:30:46;;;;;;;;;;;18.90;56.60;;;;;;6149805;29;19911;-69
2023/04/23 02:33:47;;;;;;;;;;;18.90;56.60;;;;;;6133020;29;20381;-68
2023/04/23 02:36:47;;;;;;;;;;;18.90;56.60;;;;;;6149879;28;19911;-69
2023/04/23 02:39:48;;;;;;;;;;;18.90;56.60;;;;;;6132499;29;19915;-70
2023/04/23 02:42:49;;;;;;;;;;;18.90;56.60;;;;;;6149780;29;20009;-68
2023/04/23 02:45:50;;;;;;;;;;;18.90;56.60;;;;;;6149930;28;19922;-68
2023/04/23 02:48:50;;;;;;;;;;;18.90;56.60;;;;;;6132414;29;19911;-69
2023/04/23 02:51:51;;;;;;;;;;;18.90;56.60;;;;;;6132430;29;19918;-68
2023/04/23 02:54:51;;;;;;;;;;;18.90;56.60;;;;;;6149548;28;19914;-69
2023/04/23 02:57:52;;;;;;;;;;;18.90;56.60;;;;;;6149543;29;19911;-69
2023/04/23 03:00:53;;;;;;;;;;;18.90;56.60;;;;;;6132028;29;20366;-68
2023/04/23 03:03:54;;;;;;;;;;;18.90;56.60;;;;;;6149495;29;19975;-69
2023/04/23 03:06:54;;;;;;;;;;;18.90;56.60;;;;;;6123969;29;19911;-69
2023/04/23 03:09:55;;;;;;;;;;;18.90;56.70;;;;;;6147787;29;20440;-68
2023/04/23 03:12:56;;;;;;;;;;;18.90;57.30;;;;;;6148914;28;19917;-69
2023/04/23 03:15:56;;;;;;;;;;;18.90;56.70;;;;;;6149241;28;19962;-68
2023/04/23 03:18:58;;;;;;;;;;;18.90;56.70;;;;;;6149101;29;19915;-69
2023/04/23 03:21:58;;;;;;;;;;;18.90;56.60;;;;;;6131818;29;19919;-69
2023/04/23 03:24:59;;;;;;;;;;;18.90;56.70;;;;;;6148611;29;19921;-69
2023/04/23 03:28:00;;;;;;;;;;;18.90;56.70;;;;;;6148837;29;19921;-68
2023/04/23 03:31:00;;;;;;;;;;;18.90;56.70;;;;;;6148637;29;19957;-68
2023/04/23 03:34:01;;;;;;;;;;;18.90;56.60;;;;;;6148932;29;20318;-69
2023/04/23 03:37:02;;;;;;;;;;;18.90;56.60;;;;;;6147256;29;20006;-68
2023/04/23 03:40:06;;;;;;;;;;;18.90;56.70;;;;;;6148550;29;19914;-68
2023/04/23 03:43:06;;;;;;;;;;;18.90;56.70;;;;;;6148476;29;19954;-69
2023/04/23 03:46:07;;;;;;;;;;;18.90;56.70;;;;;;6147218;29;19911;-68
2023/04/23 03:49:08;;;;;;;;;;;18.90;56.70;;;;;;6147092;29;19938;-68
2023/04/23 03:52:08;;;;;;;;;;;18.90;56.70;;;;;;6147464;29;19911;-69
2023/04/23 03:55:09;;;;;;;;;;;18.90;56.70;;;;;;6148276;29;19910;-68
2023/04/23 03:58:10;;;;;;;;;;;18.90;56.70;;;;;;6146896;29;19915;-68
2023/04/23 04:01:11;;;;;;;;;;;18.90;56.70;;;;;;6147079;29;20333;-69
2023/04/23 04:04:12;;;;;;;;;;;18.90;56.70;;;;;;6148223;29;19910;-69
2023/04/23 04:07:12;;;;;;;;;;;18.90;56.70;;;;;;6148213;29;20031;-68
2023/04/23 04:10:13;;;;;;;;;;;18.90;56.70;;;;;;6125305;28;19919;-68
2023/04/23 04:13:14;;;;;;;;;;;18.90;56.70;;;;;;6124353;29;19943;-69
2023/04/23 04:16:15;;;;;;;;;;;18.90;56.70;;;;;;6124214;29;19918;-69
2023/04/23 04:19:16;;;;;;;;;;;18.90;56.70;;;;;;6107203;29;19911;-69
2023/04/23 04:22:16;;;;;;;;;;;18.90;56.70;;;;;;6122935;29;19919;-69
2023/04/23 04:25:17;;;;;;;;;;;18.90;56.70;;;;;;6109290;29;19911;-69
2023/04/23 04:28:17;;;;;;;;;;;18.90;56.70;;;;;;6111976;29;19911;-68
2023/04/23 04:31:20;;;;;;;;;;;18.90;56.70;;;;;;6129275;29;19911;-69
2023/04/23 04:34:22;;;;;;;;;;;18.90;56.80;;;;;;6128954;29;19946;-68
2023/04/23 04:37:22;;;;;;;;;;;18.90;56.70;;;;;;6112065;29;19911;-69
2023/04/23 04:40:25;;;;;;;;;;;18.90;56.70;;;;;;6128773;29;19922;-68
2023/04/23 04:43:25;;;;;;;;;;;18.90;56.70;;;;;;6111562;29;19911;-68
2023/04/23 04:46:27;;;;;;;;;;;18.90;56.70;;;;;;6128754;29;19910;-68
2023/04/23 04:49:28;;;;;;;;;;;18.90;56.80;;;;;;6111564;29;19911;-69
2023/04/23 04:52:29;;;;;;;;;;;18.90;56.70;;;;;;6128416;29;20268;-69
2023/04/23 04:55:30;;;;;;;;;;;18.90;56.70;;;;;;6128604;29;19997;-69
2023/04/23 04:58:30;;;;;;;;;;;18.90;56.70;;;;;;6128639;29;19918;-68
2023/04/23 05:01:32;;;;;;;;;;;18.90;56.70;;;;;;6128254;29;19915;-68
2023/04/23 05:04:33;;;;;;;;;;;18.90;56.70;;;;;;6128062;29;19911;-68
2023/04/23 05:07:33;;;;;;;;;;;18.90;56.70;;;;;;6111482;29;20357;-68
2023/04/23 05:10:34;;;;;;;;;;;18.90;56.70;;;;;;6151763;29;19917;-68
2023/04/23 05:13:34;;;;;;;;;;;18.90;56.80;;;;;;6151929;29;19911;-69
2023/04/23 05:16:35;;;;;;;;;;;18.90;56.70;;;;;;6151605;28;19911;-68
2023/04/23 05:19:35;;;;;;;;;;;18.90;56.80;;;;;;6151776;29;19917;-69
2023/04/23 05:22:36;;;;;;;;;;;18.90;56.80;;;;;;6151596;29;19958;-68
2023/04/23 05:25:37;;;;;;;;;;;18.90;56.80;;;;;;6134223;29;19938;-68
2023/04/23 05:28:38;;;;;;;;;;;18.90;56.80;;;;;;6151440;29;20235;-68
2023/04/23 05:31:38;;;;;;;;;;;18.90;56.80;;;;;;6151487;29;19918;-69
2023/04/23 05:34:39;;;;;;;;;;;18.90;56.80;;;;;;6151122;28;19911;-68
2023/04/23 05:37:39;;;;;;;;;;;18.90;56.80;;;;;;6149871;28;19915;-68
2023/04/23 05:40:40;;;;;;;;;;;18.90;56.80;;;;;;6149872;29;19961;-68
2023/04/23 05:43:40;;;;;;;;;;;18.90;56.80;;;;;;6133874;29;19911;-68
2023/04/23 05:46:41;;;;;;;;;;;18.90;56.80;;;;;;6133806;29;19993;-69
2023/04/23 05:49:42;;;;;;;;;;;18.90;56.80;;;;;;6151250;29;20361;-68
2023/04/23 05:52:42;;;;;;;;;;;18.90;56.80;;;;;;6133647;29;19911;-68
2023/04/23 05:55:43;;;;;;;;;;;18.90;56.80;;;;;;6150842;28;19910;-68
2023/04/23 05:58:43;;;;;;;;;;;18.90;56.80;;;;;;6151018;29;19911;-67
2023/04/23 06:01:46;;;;;;;;;;;18.90;56.80;;;;;;6133432;29;19914;-68
2023/04/23 06:04:46;;;;;;;;;;;18.90;56.80;;;;;;6133257;28;19910;-69
2023/04/23 06:07:47;;;;;;;;;;;18.90;56.80;;;;;;6150598;28;19913;-69
2023/04/23 06:10:48;;;;;;;;;;;18.90;56.80;;;;;;6149521;29;19925;-68
2023/04/23 06:13:48;;;;;;;;;;;18.90;56.80;;;;;;6133156;29;19911;-68
2023/04/23 06:16:49;;;;;;;;;;;18.90;56.80;;;;;;6150362;28;20392;-68
2023/04/23 06:19:50;;;;;;;;;;;18.90;56.80;;;;;;6150320;29;19914;-69
2023/04/23 06:22:50;;;;;;;;;;;18.90;56.80;;;;;;6150394;29;19950;-68
2023/04/23 06:25:51;;;;;;;;;;;18.90;56.80;;;;;;6149698;28;19911;-68
2023/04/23 06:28:51;;;;;;;;;;;18.90;56.80;;;;;;6132903;29;19921;-69
2023/04/23 06:31:54;;;;;;;;;;;18.90;56.80;;;;;;6149977;29;19930;-68
2023/04/23 06:34:55;;;;;;;;;;;18.90;56.80;;;;;;6149668;28;19910;-68
2023/04/23 06:37:55;;;;;;;;;;;18.90;57.50;;;;;;6149487;29;19990;-68
2023/04/23 06:40:57;;;;;;;;;;;18.90;56.80;;;;;;6149727;29;19941;-68
2023/04/23 06:43:58;;;;;;;;;;;18.90;56.80;;;;;;6149585;29;19910;-68
2023/04/23 06:46:58;;;;;;;;;;;18.90;56.80;;;;;;6148957;28;19921;-68
2023/04/23 06:49:59;;;;;;;;;;;18.90;56.80;;;;;;6149649;29;19953;-68
2023/04/23 06:52:59;;;;;;;;;;;18.90;56.80;;;;;;6149630;29;19915;-68
2023/04/23 06:56:00;;;;;;;;;;;18.90;56.80;;;;;;6149373;28;19962;-68
2023/04/23 06:59:00;;;;;;;;;;;18.90;56.80;;;;;;6149502;29;20001;-69
2023/04/23 07:02:01;;;;;;;;;;;18.90;56.80;;;;;;6149363;29;19915;-69
2023/04/23 07:05:02;;;;;;;;;;;18.90;56.80;;;;;;6149476;28;20606;-68
2023/04/23 07:08:03;;;;;;;;;;;18.90;56.80;;;;;;6149071;29;19968;-68
2023/04/23 07:11:03;;;;;;;;;;;18.90;56.80;;;;;;6132108;29;19914;-68
2023/04/23 07:14:05;;;;;;;;;;;18.90;56.80;;;;;;6131661;29;19965;-69
2023/04/23 07:17:05;;;;;;;;;;;18.90;56.80;;;;;;6147798;28;19911;-69
2023/04/23 07:20:07;;;;;;;;;;;18.90;56.80;;;;;;6148704;29;19918;-68
2023/04/23 07:23:07;;;;;;;;;;;18.90;56.80;;;;;;6131989;29;19915;-68
2023/04/23 07:26:08;;;;;;;;;;;18.90;56.80;;;;;;6148686;29;20381;-68
2023/04/23 07:29:12;;;;;;;;;;;18.90;56.80;;;;;;6148667;29;19911;-68
2023/04/23 07:32:13;;;;;;;;;;;18.90;56.80;;;;;;6163544;28;19910;-68
2023/04/23 07:35:14;;;;;;;;;;;18.90;56.80;;;;;;6131412;29;19933;-68
2023/04/23 07:38:14;;;;;;;;;;;18.90;56.80;;;;;;6148404;29;19911;-69
2023/04/23 07:41:15;;;;;;;;;;;18.90;56.80;;;;;;6148579;29;19973;-69
2023/04/23 07:44:16;;;;;;;;;;;18.90;56.80;;;;;;6148525;29;19941;-68
2023/04/23 07:47:17;;;;;;;;;;;18.90;57.50;;;;;;6148438;29;19917;-69
2023/04/23 07:50:17;;;;;;;;;;;18.90;56.80;;;;;;6131227;29;19910;-68
2023/04/23 07:53:18;;;;;;;;;;;18.90;56.80;;;;;;6148483;29;19910;-69
2023/04/23 07:56:20;;;;;;;;;;;18.90;56.80;;;;;;6146965;29;20276;-68
2023/04/23 07:59:21;;;;;;;;;;;18.90;57.50;;;;;;6147653;28;20348;-68
2023/04/23 08:02:24;;;;;;;;;;;18.90;56.80;;;;;;6148080;29;19914;-68
2023/04/23 08:05:25;;;;;;;;;;;18.90;56.80;;;;;;6148080;29;19938;-69
2023/04/23 08:08:26;;;;;;;;;;;18.90;56.80;;;;;;6147833;29;19926;-68
2023/04/23 08:11:28;;;;;;;;;;;18.90;56.80;;;;;;6148239;29;19911;-69
2023/04/23 08:14:29;;;;;;;;;;;18.90;57.50;;;;;;6147270;29;20344;-68
2023/04/23 08:17:31;;;;;;;;;;;18.90;56.80;;;;;;6127081;29;20194;-68
2023/04/23 08:20:31;;;;;;;;;;;18.90;56.80;;;;;;6147757;29;19914;-69
2023/04/23 08:23:32;;;;;;;;;;;18.90;56.80;;;;;;6145827;29;19910;-68
2023/04/23 08:26:33;;;;;;;;;;;18.90;56.80;;;;;;6148003;28;19985;-68
2023/04/23 08:29:34;;;;;;;;;;;18.90;56.80;;;;;;6147746;29;19914;-68
2023/04/23 08:32:34;;;;;;;;;;;18.90;56.90;;;;;;6148391;29;19911;-68
2023/04/23 08:35:35;;;;;;;;;;;18.90;56.90;;;;;;6147733;28;19985;-69
2023/04/23 08:38:35;;;;;;;;;;;18.90;56.90;;;;;;6147808;29;20001;-68
2023/04/23 08:41:41;;;;;;;;;;;18.90;56.90;;;;;;6147714;29;19915;-68
2023/04/23 08:44:42;;;;;;;;;;;18.90;56.90;;;;;;6130649;28;20270;-68
2023/04/23 08:47:43;;;;;;;;;;;18.90;56.90;;;;;;6142576;29;19938;-68
2023/04/23 08:50:44;;;;;;;;;;;18.90;56.90;;;;;;6145353;29;20591;-69
2023/04/23 08:53:46;;;;;;;;;;;18.90;56.90;;;;;;6127726;29;19918;-69
2023/04/23 08:56:48;;;;;;;;;;;18.90;56.90;;;;;;6122664;29;19918;-69
2023/04/23 08:59:49;;;;;;;;;;;18.90;56.90;;;;;;6136016;29;19989;-68
2023/04/23 09:02:49;;;;;;;;;;;18.90;56.90;;;;;;6146312;29;19915;-69
2023/04/23 09:05:51;;;;;;;;;;;18.90;56.90;;;;;;6138799;28;20437;-68
2023/04/23 09:08:53;;;;;;;;;;;18.90;57.00;;;;;;6145500;29;19933;-68
2023/04/23 09:11:55;;;;;;;;;;;18.90;56.90;;;;;;6147891;28;19914;-67
2023/04/23 09:14:55;;;;;;;;;;;18.90;56.90;;;;;;6150936;29;20001;-68
2023/04/23 09:17:57;;;;;;;;;;;18.90;56.90;;;;;;6132962;29;19961;-68
2023/04/23 09:20:58;;;;;;;;;;;18.90;56.90;;;;;;6149644;29;19922;-68
2023/04/23 09:23:58;;;;;;;;;;;18.90;56.90;;;;;;6150378;29;19910;-68
2023/04/23 09:26:59;;;;;;;;;;;18.90;56.90;;;;;;6150708;28;19965;-68
2023/04/23 09:30:03;;;;;;;;;;;18.90;57.00;;;;;;6150313;29;19966;-67
2023/04/23 09:33:04;;;;;;;;;;;18.90;56.90;;;;;;6165069;28;19937;-67
2023/04/23 09:36:13;;;;;;;;;;;18.90;56.90;;;;;;6150168;29;19911;-68
2023/04/23 09:39:14;;;;;;;;;;;18.90;56.90;;;;;;6150099;29;19915;-68
2023/04/23 09:42:15;;;;;;;;;;;18.90;57.00;;;;;;6132233;29;19953;-67
2023/04/23 09:45:16;;;;;;;;;;;18.90;56.90;;;;;;6148136;29;19910;-69
2023/04/23 09:48:16;;;;;;;;;;;18.90;57.00;;;;;;6132644;29;19910;-69
2023/04/23 09:51:17;;;;;;;;;;;18.90;57.00;;;;;;6149127;29;19944;-68
2023/04/23 09:54:22;;;;;;;;;;;18.90;56.90;;;;;;6142790;29;20346;-67
2023/04/23 09:57:25;;;;;;;;;;;18.90;56.90;;;;;;6149565;29;19911;-68
2023/04/23 10:00:30;;;;;;;;;;;18.90;56.90;;;;;;6143183;29;19918;-68
2023/04/23 10:03:31;;;;;;;;;;;18.90;57.00;;;;;;6149503;29;19910;-68
2023/04/23 10:06:32;;;;;;;;;;;18.90;57.00;;;;;;6146882;29;19911;-69
2023/04/23 10:09:33;;;;;;;;;;;18.90;57.00;;;;;;6132074;29;19973;-68
2023/04/23 10:12:35;;;;;;;;;;;18.90;57.00;;;;;;6149347;29;19915;-68
2023/04/23 10:15:35;;;;;;;;;;;18.90;57.00;;;;;;6147826;29;19949;-68
2023/04/23 10:18:36;;;;;;;;;;;18.90;57.00;;;;;;6147732;29;19911;-69
2023/04/23 10:21:37;;;;;;;;;;;18.90;57.00;;;;;;6127634;28;19921;-68
2023/04/23 10:24:39;;;;;;;;;;;18.90;57.00;;;;;;6146936;29;20393;-68
2023/04/23 10:27:45;;;;;;;;;;;18.90;57.00;;;;;;6128866;29;19921;-68
2023/04/23 10:30:46;;;;;;;;;;;18.90;57.00;;;;;;6125127;29;19915;-68
2023/04/23 10:33:49;;;;;;;;;;;18.90;57.00;;;;;;6146502;29;19911;-67
2023/04/23 10:36:50;;;;;;;;;;;18.90;57.00;;;;;;6131960;29;20443;-68
2023/04/23 10:39:53;;;;;;;;;;;18.90;57.00;;;;;;6148948;29;19915;-68
2023/04/23 10:42:54;;;;;;;;;;;18.90;57.00;;;;;;6131191;29;19918;-68
2023/04/23 10:45:54;;;;;;;;;;;18.90;57.00;;;;;;6131589;29;19910;-68
2023/04/23 10:49:15;;;;;;;;;;;18.90;57.10;;;;;;6122641;29;19949;-68
2023/04/23 10:52:17;;;;;;;;;;;18.90;57.00;;;;;;6145695;29;19910;-68
2023/04/23 10:55:19;;;;;;;;;;;18.90;57.00;;;;;;6142987;28;19911;-69
2023/04/23 10:58:21;;;;;;;;;;;18.90;57.00;;;;;;6147731;29;19914;-67
2023/04/23 11:01:27;;;;;;;;;;;18.90;57.00;;;;;;6140105;29;19974;-69
2023/04/23 11:04:28;;;;;;;;;;;18.90;57.00;;;;;;6121017;29;19923;-68
2023/04/23 11:07:30;;;;;;;;;;;18.90;57.00;;;;;;6147136;29;20281;-68
2023/04/23 11:10:32;;;;;;;;;;;18.90;57.00;;;;;;6147972;29;20408;-68
2023/04/23 11:13:32;;;;;;;;;;;18.90;57.00;;;;;;6147906;29;19997;-68
2023/04/23 11:16:34;;;;;;;;;;;18.90;57.00;;;;;;6130993;29;19911;-69
2023/04/23 11:19:36;;;;;;;;;;;18.90;57.10;;;;;;6129897;29;20001;-68
2023/04/23 11:22:37;;;;;;;;;;;18.90;57.10;;;;;;6133929;29;19997;-68
2023/04/23 11:25:40;;;;;;;;;;;18.90;57.00;;;;;;6147936;29;20404;-68
2023/04/23 11:28:41;;;;;;;;;;;18.90;57.00;;;;;;6161922;28;19918;-68
2023/04/23 11:31:42;;;;;;;;;;;18.90;57.00;;;;;;6143892;29;19917;-68
2023/04/23 11:34:44;;;;;;;;;;;18.90;57.00;;;;;;6145027;28;19911;-69
2023/04/23 11:37:45;;;;;;;;;;;18.90;57.10;;;;;;6146834;29;20374;-68
2023/04/23 11:40:47;;;;;;;;;;;18.90;57.10;;;;;;6147244;29;20030;-68
2023/04/23 11:43:47;;;;;;;;;;;18.90;57.10;;;;;;6115007;29;19962;-68
2023/04/23 11:46:48;;;;;;;;;;;18.90;57.10;;;;;;6125279;29;19911;-68
2023/04/23 11:49:49;;;;;;;;;;;18.90;57.10;;;;;;6138379;29;19918;-69
2023/04/23 11:52:51;;;;;;;;;;;18.90;57.10;;;;;;6144926;28;19922;-69
2023/04/23 11:55:52;;;;;;;;;;;18.90;57.10;;;;;;6126173;29;19917;-69
2023/04/23 11:59:02;;;;;;;;;;;18.90;57.10;;;;;;6141433;29;19911;-69
2023/04/23 12:02:02;;;;;;;;;;;18.90;57.10;;;;;;6146469;29;19915;-68
2023/04/23 12:05:08;;;;;;;;;;;18.90;57.10;;;;;;6145790;29;19911;-69
2023/04/23 12:08:09;;;;;;;;;;;18.90;57.10;;;;;;6146645;29;19918;-69
2023/04/23 12:11:10;;;;;;;;;;;18.90;57.10;;;;;;6145381;29;19914;-68
2023/04/23 12:14:13;;;;;;;;;;;18.90;57.00;;;;;;6146387;29;20515;-69
2023/04/23 12:17:13;;;;;;;;;;;18.90;57.10;;;;;;6129753;29;19911;-68
2023/04/23 12:20:18;;;;;;;;;;;18.90;57.10;;;;;;6146711;29;19922;-69
2023/04/23 12:23:24;;;;;;;;;;;18.90;57.10;;;;;;6121600;29;19911;-69
2023/04/23 12:26:25;;;;;;;;;;;18.90;57.80;;;;;;6122887;29;19911;-69
2023/04/23 12:29:28;;;;;;;;;;;18.90;57.10;;;;;;6123022;29;19949;-68
2023/04/23 12:32:28;;;;;;;;;;;18.90;57.10;;;;;;6121652;29;19971;-68
2023/04/23 12:35:39;;;;;;;;;;;18.90;57.10;;;;;;6129004;28;19911;-69
2023/04/23 12:38:41;;;;;;;;;;;18.90;57.00;;;;;;6146583;29;19918;-69
2023/04/23 12:41:41;;;;;;;;;;;18.90;57.10;;;;;;6146101;29;19937;-69
2023/04/23 12:44:42;;;;;;;;;;;18.90;57.10;;;;;;6146617;28;20297;-68
2023/04/23 12:47:43;;;;;;;;;;;18.90;57.00;;;;;;6149458;29;19917;-69
2023/04/23 12:50:44;;;;;;;;;;;18.90;57.10;;;;;;6150207;29;19910;-69
2023/04/23 12:53:45;;;;;;;;;;;18.90;57.10;;;;;;6150111;29;20006;-69
2023/04/23 12:56:45;;;;;;;;;;;18.90;57.10;;;;;;6151211;29;19918;-69
2023/04/23 12:59:46;;;;;;;;;;;18.90;57.10;;;;;;6128905;29;19915;-69
2023/04/23 13:02:47;;;;;;;;;;;18.90;57.10;;;;;;6137368;29;19950;-68
2023/04/23 13:05:47;;;;;;;;;;;18.90;57.10;;;;;;6131840;29;20330;-68
2023/04/23 13:08:48;;;;;;;;;;;18.90;57.10;;;;;;6133711;29;19985;-69
2023/04/23 13:11:49;;;;;;;;;;;18.90;57.10;;;;;;6149376;29;19954;-68
2023/04/23 13:14:50;;;;;;;;;;;18.90;57.20;;;;;;6160339;28;20403;-70
2023/04/23 13:17:50;;;;;;;;;;;19.00;57.20;;;;;;6148142;29;20562;-70
2023/04/23 13:20:51;;;;;;;;;;;19.00;57.20;;;;;;6133125;29;19914;-69
2023/04/23 13:23:53;;;;;;;;;;;19.00;57.10;;;;;;6150468;29;19910;-69
2023/04/23 13:26:53;;;;;;;;;;;19.00;57.00;;;;;;6150928;28;19910;-69
2023/04/23 13:29:54;;;;;;;;;;;19.00;57.10;;;;;;6133296;29;20005;-69
2023/04/23 13:32:56;;;;;;;;;;;18.90;57.00;;;;;;6150050;29;20009;-70
2023/04/23 13:35:57;;;;;;;;;;;18.90;57.00;;;;;;6148164;28;19914;-69
2023/04/23 13:38:58;;;;;;;;;;;18.90;57.10;;;;;;6132660;29;19910;-69
2023/04/23 13:41:58;;;;;;;;;;;18.90;57.10;;;;;;6132299;29;19972;-69
2023/04/23 13:44:59;;;;;;;;;;;18.90;57.10;;;;;;6150154;28;19965;-69
2023/04/23 13:48:01;;;;;;;;;;;18.90;57.10;;;;;;6149629;29;19922;-69
2023/04/23 13:51:01;;;;;;;;;;;18.90;57.10;;;;;;6149627;29;19917;-69
2023/04/23 13:54:02;;;;;;;;;;;18.90;57.10;;;;;;6149360;29;19910;-70
2023/04/23 13:57:03;;;;;;;;;;;18.90;57.10;;;;;;6149787;28;19957;-69
2023/04/23 14:00:04;;;;;;;;;;;18.90;57.10;;;;;;6148119;29;19911;-69
2023/04/23 14:03:04;;;;;;;;;;;18.90;57.20;;;;;;6148028;29;19911;-70
2023/04/23 14:06:07;;;;;;;;;;;18.90;57.10;;;;;;6149515;28;19911;-70
2023/04/23 14:09:07;;;;;;;;;;;18.90;57.10;;;;;;6136775;29;19965;-70
2023/04/23 14:12:08;;;;;;;;;;;18.90;57.20;;;;;;6125313;29;19934;-69
2023/04/23 14:15:09;;;;;;;;;;;18.90;57.10;;;;;;6108838;29;19911;-69
2023/04/23 14:18:10;;;;;;;;;;;18.90;57.20;;;;;;6124954;29;19997;-70
2023/04/23 14:21:10;;;;;;;;;;;18.90;57.80;;;;;;6124468;29;20355;-70
2023/04/23 14:24:21;;;;;;;;;;;18.90;57.10;;;;;;6123526;29;19982;-69
2023/04/23 14:27:22;;;;;;;;;;;18.90;57.10;;;;;;6102362;29;20019;-69
2023/04/23 14:30:25;;;;;;;;;;;18.90;57.10;;;;;;6108107;29;19910;-69
2023/04/23 14:33:25;;;;;;;;;;;18.90;57.10;;;;;;6124329;29;19911;-70
2023/04/23 14:36:26;;;;;;;;;;;18.90;57.20;;;;;;6124832;29;19911;-70
2023/04/23 14:39:28;;;;;;;;;;;18.90;57.20;;;;;;6123574;29;19911;-69
2023/04/23 14:42:28;;;;;;;;;;;18.90;57.20;;;;;;6124295;29;19915;-70
2023/04/23 14:45:31;;;;;;;;;;;18.90;57.20;;;;;;6124235;29;19918;-70
2023/04/23 14:48:32;;;;;;;;;;;18.90;57.20;;;;;;6123405;29;20390;-69
2023/04/23 14:51:33;;;;;;;;;;;18.90;57.20;;;;;;6123634;29;19922;-70
2023/04/23 14:54:35;;;;;;;;;;;18.90;57.20;;;;;;6123461;29;19911;-69
2023/04/23 14:57:35;;;;;;;;;;;18.90;57.20;;;;;;6107457;29;19998;-69
2023/04/23 15:00:36;;;;;;;;;;;18.90;57.20;;;;;;6107659;29;20271;-70
2023/04/23 15:04:08;;;;;;;;;;;18.90;57.10;;;;;;6122582;29;19962;-70
2023/04/23 15:07:40;;;;;;;;;;;18.90;57.20;;;;;;6122155;29;19911;-69
2023/04/23 15:10:42;;;;;;;;;;;18.90;57.20;;;;;;6144410;29;20021;-70
2023/04/23 15:13:55;;;;;;;;;;;18.90;57.20;;;;;;6144639;29;20328;-70
2023/04/23 15:16:55;;;;;;;;;;;18.90;57.20;;;;;;6147632;28;19942;-70
2023/04/23 15:19:59;;;;;;;;;;;18.90;57.20;;;;;;6148127;29;19964;-69
2023/04/23 15:22:59;;;;;;;;;;;18.90;57.20;;;;;;6147419;29;19921;-69
2023/04/23 15:26:00;;;;;;;;;;;18.90;57.20;;;;;;6145191;29;19914;-69
2023/04/23 15:29:01;;;;;;;;;;;18.90;57.20;;;;;;6146181;29;19911;-70
2023/04/23 15:32:02;;;;;;;;;;;18.90;57.10;;;;;;6147092;29;20424;-69
2023/04/23 15:35:03;;;;;;;;;;;18.90;57.20;;;;;;6147418;29;19911;-69
2023/04/23 15:38:03;;;;;;;;;;;18.90;57.20;;;;;;6147665;29;20011;-70
2023/04/23 15:41:04;;;;;;;;;;;18.90;57.20;;;;;;6147394;29;20001;-70
2023/04/23 15:44:07;;;;;;;;;;;18.90;57.20;;;;;;6129909;29;20271;-69
2023/04/23 15:47:07;;;;;;;;;;;18.90;57.80;;;;;;6132439;29;19910;-69
2023/04/23 15:50:08;;;;;;;;;;;18.90;57.20;;;;;;6129912;29;19962;-70
2023/04/23 15:53:09;;;;;;;;;;;18.90;57.20;;;;;;6129492;29;19910;-70
2023/04/23 15:56:10;;;;;;;;;;;18.90;57.20;;;;;;6129850;29;19914;-70
2023/04/23 15:59:10;;;;;;;;;;;18.90;57.20;;;;;;6146876;29;19915;-69
2023/04/23 16:02:11;;;;;;;;;;;18.90;57.20;;;;;;6145291;28;19918;-69
2023/04/23 16:05:12;;;;;;;;;;;18.90;57.20;;;;;;6146837;29;19917;-70
2023/04/23 16:08:13;;;;;;;;;;;18.90;57.20;;;;;;6129872;29;19958;-69
2023/04/23 16:11:13;;;;;;;;;;;18.90;57.20;;;;;;6147071;29;19938;-70
2023/04/23 16:14:14;;;;;;;;;;;18.90;57.40;;;;;;6146350;29;19933;-69
2023/04/23 16:17:15;;;;;;;;;;;18.90;57.80;;;;;;6157565;28;19911;-71
2023/04/23 16:20:15;;;;;;;;;;;18.90;57.20;;;;;;6144687;29;20334;-70
2023/04/23 16:23:16;;;;;;;;;;;18.90;57.10;;;;;;6146087;29;19910;-69
2023/04/23 16:29:55;;;;;;;;;;;18.90;57.20;;;;;;6137983;29;19910;-70
2023/04/23 16:32:56;;;;;;;;;;;18.90;57.20;;;;;;6146440;29;19918;-69
2023/04/23 16:35:58;;;;;;;;;;;18.90;57.20;;;;;;6146352;28;20474;-70
2023/04/23 16:39:17;;;;;;;;;;;18.90;57.10;;;;;;6146897;29;19922;-69
2023/04/23 16:42:18;;;;;;;;;;;18.90;57.20;;;;;;6144738;29;19957;-69
2023/04/23 16:45:21;;;;;;;;;;;18.90;57.20;;;;;;6160863;28;20382;-69
2023/04/23 16:48:22;;;;;;;;;;;18.90;57.20;;;;;;6140254;29;19910;-69
2023/04/23 16:51:23;;;;;;;;;;;18.90;57.20;;;;;;6145891;29;19911;-72
2023/04/23 16:54:50;;;;;;;;;;;18.90;57.10;;;;;;6128536;29;19910;-72
2023/04/23 16:57:51;;;;;;;;;;;18.90;57.10;;;;;;6128895;29;20452;-71
2023/04/23 17:00:52;;;;;;;;;;;18.90;57.20;;;;;;6145359;29;19918;-72
2023/04/23 17:03:53;;;;;;;;;;;18.90;57.20;;;;;;6126166;29;19918;-72
2023/04/23 17:06:54;;;;;;;;;;;18.90;57.20;;;;;;6145135;28;19918;-71
2023/04/23 17:09:55;;;;;;;;;;;18.90;57.20;;;;;;6145965;28;20045;-72
2023/04/23 17:12:55;;;;;;;;;;;18.90;57.20;;;;;;6142900;29;19918;-72
2023/04/23 17:15:56;;;;;;;;;;;18.90;57.20;;;;;;6145380;28;19914;-72
2023/04/23 17:18:57;;;;;;;;;;;18.90;57.20;;;;;;6128641;29;19997;-72
2023/04/23 17:21:57;;;;;;;;;;;18.90;57.20;;;;;;6145427;29;19915;-72
2023/04/23 17:24:58;;;;;;;;;;;18.90;57.20;;;;;;6145801;29;19933;-72
2023/04/23 17:27:58;;;;;;;;;;;18.90;57.10;;;;;;6158697;28;20310;-72
2023/04/23 17:31:01;;;;;;;;;;;18.90;57.20;;;;;;6145547;28;20056;-71
2023/04/23 17:34:02;;;;;;;;;;;18.90;57.20;;;;;;6125040;29;19915;-72
2023/04/23 17:37:02;;;;;;;;;;;18.90;57.20;;;;;;6135276;29;20438;-72
2023/04/23 17:40:04;;;;;;;;;;;18.90;57.20;;;;;;6149794;29;20407;-72